Airfield :
LOGIN :

Register | Disclaimer

   EN    FR    IT 

 










Legend :    VFR   Marginal VFR   IFR   Intensive IFR   Very Intensive IFR
Visi :
Ceiling :
>= 8 km
>= 3000ft
5 to 8 km
1000 to 3000 ft
1500m to 5 km
500 to 1000 ft
800 to 1500m
200 to 500 ft
< 800m
< 200 ft
Symbols :   Thunderstorms  Fog  Heavy snow  Heavy precipitations  Wind > 20 kt
SIGMETs :     Misc.  Thunderstorms  Icing  Turbulence  Mountain Waves  Volcanic Ashes







- Airport Elevation : 157 ft
- IATA code : SXF


EDDB - Berlin Schönefeld

CURRENT METAR :
  • 300050Z 09006KT 070V140 CAVOK 20/14 Q1011 NOSIG

EXPIRED METARs :
  • 300020Z 04007KT 010V070 9999 FEW061CB BKN091 20/14 Q1012 NOSIG
  • 292350Z 06006KT 9999 SCT061CB BKN091 20/14 Q1012 NOSIG
  • 292320Z 07003KT CAVOK 20/14 Q1012 NOSIG
  • 292250Z 07004KT CAVOK 20/14 Q1012 NOSIG
  • 292220Z 07005KT CAVOK 20/14 Q1012 NOSIG

TAF TAF EDDB
Valid from the 30 at 00:00 until the 31 at 00:00 UTC


292300Z 3000/3024 07005KT CAVOK
PROB30
TEMPO 3000/3006 TSRA BKN030CB
BECMG 3007/3010 20010KT
PROB40
TEMPO 3010/3020 27015G30KT 4000 TSRA BKN025CB
No reported NOTAMs for that airfield.



MET'MAP, your aeronautical weather chart ! - Copyright ORBIFLY December 2007 - Disclaimer

ORBIFLY MET'MAP TEAM :

Programming & Development : Alexandra Zaïnal
Concept & Development : Baudouin d'Aumeries
Co-Development & Prog : Marc-Olivier Méhu
Technical & hardware support : Manuel Goepfert

Contact : metmap@orbifly.com




SOURCES & CREDITS :

   NOAA